createdAt,value
2019-01-08T00:00:30.362Z,9.4
2019-01-08T00:01:31.732Z,9.4
2019-01-08T00:02:33.090Z,9.3
2019-01-08T00:03:34.513Z,9.3
2019-01-08T00:04:35.885Z,9.3
2019-01-08T00:05:37.249Z,9.3
2019-01-08T00:06:38.615Z,9.5
2019-01-08T00:07:39.989Z,9.4
2019-01-08T00:08:41.361Z,9.4
2019-01-08T00:09:42.731Z,9.4
2019-01-08T00:10:44.094Z,9.3
2019-01-08T00:11:45.455Z,9.4
2019-01-08T00:12:46.819Z,9.4
2019-01-08T00:13:48.186Z,9.4
2019-01-08T00:14:49.553Z,9.5
2019-01-08T00:15:50.922Z,9.4
2019-01-08T00:16:52.287Z,9.5
2019-01-08T00:17:53.650Z,9.4
2019-01-08T00:18:55.016Z,9.4
2019-01-08T00:19:56.379Z,9.4
2019-01-08T00:20:57.745Z,9.4
2019-01-08T00:21:59.118Z,9.5
2019-01-08T00:23:00.480Z,9.4
2019-01-08T00:24:01.853Z,9.5
2019-01-08T00:25:03.221Z,9.4
2019-01-08T00:26:04.585Z,9.4
2019-01-08T00:27:05.963Z,9.4
2019-01-08T00:28:07.344Z,9.3
2019-01-08T00:29:08.691Z,9.3
2019-01-08T00:30:10.051Z,9.2
2019-01-08T00:31:11.419Z,9.1
2019-01-08T00:32:12.796Z,9.1
2019-01-08T00:33:14.160Z,9.1
2019-01-08T00:34:15.515Z,9.0
2019-01-08T00:35:16.884Z,8.9
2019-01-08T00:36:18.244Z,8.9
2019-01-08T00:37:19.621Z,8.9
2019-01-08T00:38:21.005Z,8.9
2019-01-08T00:39:22.366Z,8.9
2019-01-08T00:40:23.748Z,8.9
2019-01-08T00:41:25.133Z,8.8
2019-01-08T00:42:26.499Z,8.7
2019-01-08T00:43:27.849Z,8.8
2019-01-08T00:44:29.219Z,8.8
2019-01-08T00:45:30.597Z,8.7
2019-01-08T00:46:31.956Z,8.7
2019-01-08T00:47:33.323Z,8.7
2019-01-08T00:48:34.685Z,8.6
2019-01-08T00:49:36.047Z,8.6
2019-01-08T00:50:37.412Z,8.4
2019-01-08T00:51:38.778Z,8.5
2019-01-08T00:52:40.146Z,8.4
2019-01-08T00:53:41.515Z,8.4
2019-01-08T00:54:42.869Z,8.3
2019-01-08T00:55:44.236Z,8.4
2019-01-08T00:56:45.598Z,8.4
2019-01-08T00:57:46.962Z,8.4
2019-01-08T00:58:51.664Z,8.3
2019-01-08T00:59:49.650Z,8.3
2019-01-08T01:00:51.029Z,8.3
2019-01-08T01:01:52.409Z,8.3
2019-01-08T01:02:53.776Z,8.2
2019-01-08T01:03:55.140Z,8.2
2019-01-08T01:04:56.524Z,8.3
2019-01-08T01:05:57.880Z,8.2
2019-01-08T01:06:59.255Z,8.3
2019-01-08T01:08:00.623Z,8.3
2019-01-08T01:09:01.990Z,8.3
2019-01-08T01:10:03.351Z,8.4
2019-01-08T01:11:04.706Z,8.3
2019-01-08T01:12:06.078Z,8.4
2019-01-08T01:13:07.442Z,8.4
2019-01-08T01:14:08.810Z,8.4
2019-01-08T01:15:10.179Z,8.4
2019-01-08T01:16:11.537Z,8.4
2019-01-08T01:17:12.897Z,8.4
2019-01-08T01:18:14.262Z,8.4
2019-01-08T01:19:15.625Z,8.4
2019-01-08T01:20:16.990Z,8.3
2019-01-08T01:21:18.356Z,8.4
2019-01-08T01:22:19.718Z,8.3
2019-01-08T01:23:21.079Z,8.3
2019-01-08T01:24:22.442Z,8.3
2019-01-08T01:25:23.809Z,8.3
2019-01-08T01:26:25.175Z,8.3
2019-01-08T01:27:26.540Z,8.3
2019-01-08T01:28:27.901Z,8.3
2019-01-08T01:29:29.262Z,8.3
2019-01-08T01:30:30.626Z,8.3
2019-01-08T01:31:31.990Z,8.3
2019-01-08T01:32:33.362Z,8.3
2019-01-08T01:33:34.716Z,8.2
2019-01-08T01:34:36.098Z,8.2
2019-01-08T01:35:37.445Z,8.2
2019-01-08T01:36:38.805Z,8.1
2019-01-08T01:37:40.169Z,8.2
2019-01-08T01:38:41.540Z,8.2
2019-01-08T01:39:42.911Z,8.2
2019-01-08T01:40:44.259Z,8.2
2019-01-08T01:41:45.623Z,8.2
2019-01-08T01:42:46.988Z,8.2
2019-01-08T01:43:48.354Z,8.2
2019-01-08T01:44:49.720Z,8.2
2019-01-08T01:45:51.080Z,8.2
2019-01-08T01:46:52.439Z,8.2
2019-01-08T01:47:53.803Z,8.2
2019-01-08T01:48:55.166Z,8.2
2019-01-08T01:49:56.529Z,8.2
2019-01-08T01:50:57.895Z,8.2
2019-01-08T01:51:59.265Z,8.1
2019-01-08T01:53:00.619Z,8.1
2019-01-08T01:54:01.984Z,8.1
2019-01-08T01:55:03.346Z,8.2
2019-01-08T01:56:04.708Z,8.2
2019-01-08T01:57:06.082Z,8.2
2019-01-08T01:58:07.440Z,8.2
2019-01-08T01:59:08.841Z,8.2
2019-01-08T02:00:10.234Z,8.1
2019-01-08T02:01:11.530Z,8.1
2019-01-08T02:02:12.892Z,8.0
2019-01-08T02:03:14.257Z,8.1
2019-01-08T02:04:15.624Z,8.1
2019-01-08T02:05:16.993Z,8.0
2019-01-08T02:06:18.353Z,8.0
2019-01-08T02:07:19.717Z,8.0
2019-01-08T02:08:21.082Z,8.1
2019-01-08T02:09:22.446Z,8.1
2019-01-08T02:10:23.810Z,8.1
2019-01-08T02:11:25.170Z,8.0
2019-01-08T02:12:26.536Z,8.1
2019-01-08T02:13:27.899Z,8.1
2019-01-08T02:14:29.261Z,8.1
2019-01-08T02:15:30.626Z,8.1
2019-01-08T02:16:31.993Z,8.1
2019-01-08T02:17:33.319Z,8.2
2019-01-08T02:18:34.718Z,8.1
2019-01-08T02:19:36.095Z,8.1
2019-01-08T02:20:37.457Z,8.1
2019-01-08T02:21:38.815Z,8.0
2019-01-08T02:22:40.179Z,8.2
2019-01-08T02:23:41.541Z,8.2
2019-01-08T02:24:42.904Z,8.2
2019-01-08T02:25:44.271Z,8.1
2019-01-08T02:26:45.640Z,8.2
2019-01-08T02:27:46.999Z,8.1
2019-01-08T02:28:48.363Z,8.1
2019-01-08T02:29:49.720Z,8.1
2019-01-08T02:30:51.085Z,8.0
2019-01-08T02:31:52.457Z,8.0
2019-01-08T02:32:53.816Z,8.0
2019-01-08T02:33:55.181Z,8.0
2019-01-08T02:34:56.544Z,8.0
2019-01-08T02:35:57.901Z,8.0
2019-01-08T02:36:59.263Z,8.0
2019-01-08T02:38:00.628Z,8.0
2019-01-08T02:39:01.995Z,8.0
2019-01-08T02:40:03.365Z,8.0
2019-01-08T02:41:04.723Z,8.1
2019-01-08T02:42:06.085Z,8.1
2019-01-08T02:43:07.460Z,8.2
2019-01-08T02:44:08.918Z,8.0
2019-01-08T02:45:10.137Z,8.1
2019-01-08T02:46:11.633Z,8.1
2019-01-08T02:47:12.827Z,8.1
2019-01-08T02:48:14.188Z,8.2
2019-01-08T02:49:15.552Z,8.2
2019-01-08T02:50:16.914Z,8.2
2019-01-08T02:51:18.286Z,8.1
2019-01-08T02:52:19.642Z,8.2
2019-01-08T02:53:21.006Z,8.2
2019-01-08T02:54:22.452Z,8.2
2019-01-08T02:55:23.694Z,8.2
2019-01-08T02:56:25.059Z,8.3
2019-01-08T02:57:26.419Z,8.2
2019-01-08T02:58:27.781Z,8.2
2019-01-08T02:59:29.145Z,8.2
2019-01-08T03:00:30.506Z,8.2
2019-01-08T03:01:31.873Z,8.1
2019-01-08T03:02:33.236Z,8.1
2019-01-08T03:03:34.598Z,8.1
2019-01-08T03:04:35.962Z,8.1
2019-01-08T03:05:37.324Z,8.1
2019-01-08T03:06:38.687Z,8.1
2019-01-08T03:07:40.050Z,8.1
2019-01-08T03:08:41.415Z,8.0
2019-01-08T03:09:42.781Z,7.9
2019-01-08T03:10:44.142Z,8.0
2019-01-08T03:11:45.500Z,8.0
2019-01-08T03:12:46.863Z,8.0
2019-01-08T03:13:48.228Z,8.0
2019-01-08T03:14:49.594Z,8.0
2019-01-08T03:15:50.959Z,7.9
2019-01-08T03:16:52.323Z,8.1
2019-01-08T03:17:53.683Z,8.1
2019-01-08T03:18:55.048Z,8.1
2019-01-08T03:19:56.410Z,8.0
2019-01-08T03:20:57.772Z,8.0
2019-01-08T03:21:59.261Z,8.1
2019-01-08T03:23:00.628Z,8.1
2019-01-08T03:24:01.993Z,8.0
2019-01-08T03:25:03.349Z,8.0
2019-01-08T03:26:04.716Z,7.9
2019-01-08T03:27:06.075Z,7.9
2019-01-08T03:28:07.438Z,8.0
2019-01-08T03:29:08.805Z,8.0
2019-01-08T03:30:10.170Z,8.0
2019-01-08T03:31:11.536Z,8.0
2019-01-08T03:32:12.894Z,7.9
2019-01-08T03:33:14.257Z,8.0
2019-01-08T03:34:15.624Z,8.0
2019-01-08T03:35:16.982Z,7.9
2019-01-08T03:36:18.349Z,8.0
2019-01-08T03:37:19.711Z,8.0
2019-01-08T03:38:21.078Z,8.0
2019-01-08T03:39:22.440Z,7.9
2019-01-08T03:40:23.802Z,8.0
2019-01-08T03:41:25.166Z,7.9
2019-01-08T03:42:26.532Z,8.0
2019-01-08T03:43:27.896Z,7.9
2019-01-08T03:44:29.263Z,7.9
2019-01-08T03:45:30.627Z,8.0
2019-01-08T03:46:31.989Z,8.0
2019-01-08T03:47:33.349Z,7.9
2019-01-08T03:48:34.715Z,7.9
2019-01-08T03:49:36.077Z,8.0
2019-01-08T03:50:37.439Z,8.1
2019-01-08T03:51:38.805Z,7.9
2019-01-08T03:52:40.168Z,8.0
2019-01-08T03:53:41.533Z,7.9
2019-01-08T03:54:42.892Z,8.0
2019-01-08T03:55:44.256Z,8.0
2019-01-08T03:56:45.618Z,7.9
2019-01-08T03:57:46.981Z,8.1
2019-01-08T03:58:48.348Z,7.9
2019-01-08T03:59:49.711Z,7.9
2019-01-08T04:00:51.076Z,7.9
2019-01-08T04:01:52.433Z,8.0
2019-01-08T04:02:53.801Z,8.0
2019-01-08T04:03:55.172Z,8.0
2019-01-08T04:04:56.534Z,8.1
2019-01-08T04:05:57.899Z,7.9
2019-01-08T04:06:59.274Z,7.9
2019-01-08T04:08:00.626Z,7.9
2019-01-08T04:09:01.996Z,7.9
2019-01-08T04:10:03.362Z,7.9
2019-01-08T04:11:04.727Z,7.8
2019-01-08T04:12:06.094Z,7.9
2019-01-08T04:13:07.460Z,7.9
2019-01-08T04:14:08.822Z,7.9
2019-01-08T04:15:10.182Z,7.9
2019-01-08T04:16:11.549Z,7.9
2019-01-08T04:17:12.909Z,7.9
2019-01-08T04:18:14.273Z,7.9
2019-01-08T04:19:15.638Z,7.8
2019-01-08T04:20:17.002Z,7.8
2019-01-08T04:21:18.365Z,7.9
2019-01-08T04:22:19.731Z,7.9
2019-01-08T04:23:21.093Z,7.9
2019-01-08T04:24:22.543Z,7.9
2019-01-08T04:25:23.781Z,7.9
2019-01-08T04:26:25.151Z,7.9
2019-01-08T04:27:26.514Z,7.9
2019-01-08T04:28:27.876Z,7.9
2019-01-08T04:29:29.241Z,7.9
2019-01-08T04:30:30.604Z,8.0
2019-01-08T04:31:31.968Z,7.9
2019-01-08T04:32:33.333Z,7.9
2019-01-08T04:33:34.696Z,7.9
2019-01-08T04:34:36.066Z,7.9
2019-01-08T04:35:37.428Z,7.9
2019-01-08T04:36:38.789Z,8.0
2019-01-08T04:37:40.154Z,7.9
2019-01-08T04:38:41.517Z,7.9
2019-01-08T04:39:42.881Z,8.0
2019-01-08T04:40:44.244Z,8.0
2019-01-08T04:41:45.608Z,7.9
2019-01-08T04:42:46.971Z,7.9
2019-01-08T04:43:48.339Z,7.9
2019-01-08T04:44:49.700Z,7.9
2019-01-08T04:45:51.064Z,7.9
2019-01-08T04:46:52.428Z,8.0
2019-01-08T04:47:53.790Z,7.8
2019-01-08T04:48:55.163Z,7.9
2019-01-08T04:49:56.523Z,7.9
2019-01-08T04:50:57.886Z,7.9
2019-01-08T04:51:59.252Z,7.9
2019-01-08T04:53:00.611Z,7.9
2019-01-08T04:54:01.976Z,8.0
2019-01-08T04:55:03.347Z,7.8
2019-01-08T04:56:04.714Z,7.9
2019-01-08T04:57:06.076Z,7.9
2019-01-08T04:58:07.440Z,7.9
2019-01-08T04:59:08.832Z,7.8
2019-01-08T05:00:10.244Z,7.9
2019-01-08T05:01:11.748Z,7.9
2019-01-08T05:02:13.170Z,7.9
2019-01-08T05:03:14.575Z,7.9
2019-01-08T05:04:15.950Z,8.0
2019-01-08T05:05:17.405Z,7.8
2019-01-08T05:06:18.936Z,7.9
2019-01-08T05:07:20.302Z,7.8
2019-01-08T05:08:21.663Z,7.9
2019-01-08T05:09:23.031Z,7.9
2019-01-08T05:10:24.396Z,7.9
2019-01-08T05:11:25.761Z,7.8
2019-01-08T05:12:27.121Z,7.8
2019-01-08T05:13:28.486Z,7.9
2019-01-08T05:14:29.849Z,7.8
2019-01-08T05:15:31.222Z,7.9
2019-01-08T05:16:32.579Z,7.9
2019-01-08T05:17:33.939Z,7.9
2019-01-08T05:18:35.306Z,8.0
2019-01-08T05:19:36.669Z,7.9
2019-01-08T05:20:38.032Z,7.8
2019-01-08T05:21:39.395Z,7.9
2019-01-08T05:22:40.758Z,8.0
2019-01-08T05:23:42.122Z,7.9
2019-01-08T05:24:43.498Z,7.9
2019-01-08T05:25:44.854Z,8.0
2019-01-08T05:26:46.214Z,7.9
2019-01-08T05:27:47.582Z,7.9
2019-01-08T05:28:48.935Z,8.0
2019-01-08T05:29:50.299Z,8.0
2019-01-08T05:30:51.658Z,7.9
2019-01-08T05:31:53.028Z,8.0
2019-01-08T05:32:54.394Z,8.0
2019-01-08T05:33:55.757Z,8.0
2019-01-08T05:34:57.116Z,7.9
2019-01-08T05:35:58.480Z,8.0
2019-01-08T05:36:59.897Z,8.0
2019-01-08T05:38:01.211Z,8.0
2019-01-08T05:39:02.574Z,8.0
2019-01-08T05:40:03.941Z,7.9
2019-01-08T05:41:05.300Z,7.9
2019-01-08T05:42:06.661Z,7.9
2019-01-08T05:43:08.031Z,7.9
2019-01-08T05:44:09.391Z,7.9
2019-01-08T05:45:10.757Z,7.9
2019-01-08T05:46:12.121Z,7.8
2019-01-08T05:47:13.487Z,7.9
2019-01-08T05:48:14.848Z,7.8
2019-01-08T05:49:16.215Z,7.8
2019-01-08T05:50:17.580Z,7.8
2019-01-08T05:51:18.935Z,7.7
2019-01-08T05:52:20.303Z,7.5
2019-01-08T05:53:21.671Z,7.3
2019-01-08T05:54:23.039Z,7.3
2019-01-08T05:55:24.397Z,7.2
2019-01-08T05:56:25.763Z,7.1
2019-01-08T05:57:27.125Z,7.0
2019-01-08T05:58:28.500Z,7.0
2019-01-08T05:59:29.855Z,7.0
2019-01-08T06:00:31.223Z,7.0
2019-01-08T06:01:33.827Z,6.9
2019-01-08T06:02:33.932Z,6.7
2019-01-08T06:03:35.292Z,6.8
2019-01-08T06:04:36.667Z,6.8
2019-01-08T06:05:38.034Z,6.8
2019-01-08T06:06:39.397Z,6.8
2019-01-08T06:07:40.764Z,6.8
2019-01-08T06:08:42.126Z,6.7
2019-01-08T06:09:43.489Z,6.8
2019-01-08T06:10:44.850Z,6.8
2019-01-08T06:11:46.216Z,6.8
2019-01-08T06:12:47.582Z,6.9
2019-01-08T06:13:48.944Z,7.0
2019-01-08T06:14:50.307Z,6.9
2019-01-08T06:15:51.681Z,7.0
2019-01-08T06:16:53.037Z,7.0
2019-01-08T06:17:54.424Z,7.0
2019-01-08T06:18:55.791Z,7.0
2019-01-08T06:19:57.156Z,7.0
2019-01-08T06:20:58.519Z,7.0
2019-01-08T06:21:59.881Z,7.0
2019-01-08T06:23:01.244Z,7.0
2019-01-08T06:24:02.607Z,6.9
2019-01-08T06:25:03.970Z,6.9
2019-01-08T06:26:05.333Z,6.9
2019-01-08T06:27:06.699Z,6.9
2019-01-08T06:28:08.074Z,6.9
2019-01-08T06:29:09.445Z,6.9
2019-01-08T06:30:10.802Z,6.9
2019-01-08T06:31:12.162Z,7.0
2019-01-08T06:32:13.527Z,6.9
2019-01-08T06:33:14.888Z,7.0
2019-01-08T06:34:16.253Z,7.0
2019-01-08T06:35:17.617Z,7.0
2019-01-08T06:36:18.980Z,7.1
2019-01-08T06:37:20.351Z,7.1
2019-01-08T06:38:21.713Z,7.1
2019-01-08T06:39:23.077Z,7.1
2019-01-08T06:40:24.440Z,7.1
2019-01-08T06:41:25.804Z,7.1
2019-01-08T06:42:27.166Z,7.1
2019-01-08T06:43:28.527Z,7.1
2019-01-08T06:44:29.896Z,7.1
2019-01-08T06:45:31.261Z,7.1
2019-01-08T06:46:32.624Z,7.1
2019-01-08T06:47:33.987Z,7.2
2019-01-08T06:48:35.349Z,7.2
2019-01-08T06:49:36.712Z,7.2
2019-01-08T06:50:38.077Z,7.2
2019-01-08T06:51:39.441Z,7.2
2019-01-08T06:52:40.804Z,7.2
2019-01-08T06:53:42.169Z,7.2
2019-01-08T06:54:43.534Z,7.2
2019-01-08T06:55:44.896Z,7.2
2019-01-08T06:56:46.262Z,7.2
2019-01-08T06:57:47.628Z,7.2
2019-01-08T06:58:48.988Z,7.3
2019-01-08T06:59:50.349Z,7.2
2019-01-08T07:00:51.709Z,7.2
2019-01-08T07:01:53.075Z,7.3
2019-01-08T07:02:54.438Z,7.3
2019-01-08T07:03:55.804Z,7.2
2019-01-08T07:04:57.169Z,7.3
2019-01-08T07:05:58.533Z,7.3
2019-01-08T07:06:59.897Z,7.2
2019-01-08T07:08:01.257Z,7.3
2019-01-08T07:09:02.621Z,7.2
2019-01-08T07:10:03.985Z,7.3
2019-01-08T07:11:05.347Z,7.3
2019-01-08T07:12:06.714Z,7.3
2019-01-08T07:13:08.077Z,7.4
2019-01-08T07:14:09.442Z,7.3
2019-01-08T07:15:10.806Z,7.3
2019-01-08T07:16:12.164Z,7.3
2019-01-08T07:17:13.538Z,7.3
2019-01-08T07:18:14.897Z,7.4
2019-01-08T07:19:16.266Z,7.4
2019-01-08T07:20:17.633Z,7.4
2019-01-08T07:21:18.991Z,7.3
2019-01-08T07:22:20.350Z,7.3
2019-01-08T07:23:21.719Z,7.3
2019-01-08T07:24:23.081Z,7.3
2019-01-08T07:25:24.449Z,7.3
2019-01-08T07:26:25.808Z,7.3
2019-01-08T07:27:27.178Z,7.4
2019-01-08T07:28:29.329Z,7.4
2019-01-08T07:29:29.877Z,7.5
2019-01-08T07:30:31.239Z,7.4
2019-01-08T07:31:32.601Z,7.4
2019-01-08T07:32:33.967Z,7.3
2019-01-08T07:33:35.335Z,7.4
2019-01-08T07:34:36.696Z,7.5
2019-01-08T07:35:38.064Z,7.4
2019-01-08T07:36:39.425Z,7.4
2019-01-08T07:37:40.789Z,7.3
2019-01-08T07:38:42.161Z,7.4
2019-01-08T07:39:43.524Z,7.4
2019-01-08T07:40:44.883Z,7.4
2019-01-08T07:41:46.256Z,7.3
2019-01-08T07:42:47.624Z,7.5
2019-01-08T07:43:48.995Z,7.5
2019-01-08T07:44:50.359Z,7.5
2019-01-08T07:45:51.722Z,7.5
2019-01-08T07:46:53.099Z,7.5
2019-01-08T07:47:54.466Z,7.5
2019-01-08T07:48:55.833Z,7.5
2019-01-08T07:49:57.198Z,7.5
2019-01-08T07:50:58.567Z,7.5
2019-01-08T07:51:59.931Z,7.5
2019-01-08T07:53:01.298Z,7.5
2019-01-08T07:54:02.666Z,7.5
2019-01-08T07:55:04.036Z,7.5
2019-01-08T07:56:05.400Z,7.5
2019-01-08T07:57:06.766Z,7.5
2019-01-08T07:58:08.141Z,7.5
2019-01-08T07:59:09.512Z,7.6
2019-01-08T08:00:10.875Z,7.6
2019-01-08T08:01:12.238Z,7.5
2019-01-08T08:02:13.615Z,7.5
2019-01-08T08:03:14.976Z,7.5
2019-01-08T08:04:16.344Z,7.6
2019-01-08T08:05:17.709Z,7.6
2019-01-08T08:06:19.077Z,7.6
2019-01-08T08:07:20.407Z,7.5
2019-01-08T08:08:21.776Z,7.6
2019-01-08T08:09:23.144Z,7.5
2019-01-08T08:10:24.515Z,7.5
2019-01-08T08:11:25.842Z,7.6
2019-01-08T08:12:27.209Z,7.6
2019-01-08T08:13:28.571Z,7.5
2019-01-08T08:14:29.947Z,7.5
2019-01-08T08:15:31.312Z,7.6
2019-01-08T08:16:32.675Z,7.6
2019-01-08T08:17:34.049Z,7.5
2019-01-08T08:18:35.415Z,7.6
2019-01-08T08:19:36.779Z,7.5
2019-01-08T08:20:38.149Z,7.6
2019-01-08T08:21:39.515Z,7.6
2019-01-08T08:22:40.882Z,7.6
2019-01-08T08:23:42.250Z,7.5
2019-01-08T08:24:43.620Z,7.5
2019-01-08T08:25:44.982Z,7.5
2019-01-08T08:26:46.348Z,7.6
2019-01-08T08:27:47.715Z,7.5
2019-01-08T08:28:49.081Z,7.5
2019-01-08T08:29:50.451Z,7.6
2019-01-08T08:30:58.684Z,7.6
2019-01-08T08:31:53.151Z,7.5
2019-01-08T08:32:54.508Z,7.6
2019-01-08T08:33:55.879Z,7.6
2019-01-08T08:34:57.246Z,7.5
2019-01-08T08:35:58.615Z,7.6
2019-01-08T08:36:59.981Z,7.5
2019-01-08T08:38:01.348Z,7.6
2019-01-08T08:39:02.720Z,7.6
2019-01-08T08:40:04.082Z,7.7
2019-01-08T08:41:05.448Z,7.6
2019-01-08T08:42:06.815Z,7.6
2019-01-08T08:43:08.178Z,7.6
2019-01-08T08:44:09.549Z,7.5
2019-01-08T08:45:10.921Z,7.5
2019-01-08T08:46:12.288Z,7.5
2019-01-08T08:47:13.654Z,7.6
2019-01-08T08:48:15.025Z,7.6
2019-01-08T08:49:16.389Z,7.5
2019-01-08T08:50:17.752Z,7.5
2019-01-08T08:51:19.126Z,7.6
2019-01-08T08:52:20.496Z,7.6
2019-01-08T08:53:21.869Z,7.6
2019-01-08T08:54:23.226Z,7.6
2019-01-08T08:55:24.592Z,7.5
2019-01-08T08:56:25.962Z,7.5
2019-01-08T08:57:27.327Z,7.5
2019-01-08T08:58:28.693Z,7.6
2019-01-08T08:59:30.062Z,7.5
2019-01-08T09:00:31.434Z,7.5
2019-01-08T09:01:32.795Z,7.5
2019-01-08T09:02:34.160Z,7.5
2019-01-08T09:03:35.529Z,7.5
2019-01-08T09:04:36.899Z,7.5
2019-01-08T09:05:38.263Z,7.6
2019-01-08T09:06:39.628Z,7.5
2019-01-08T09:07:41.001Z,7.5
2019-01-08T09:08:42.367Z,7.5
2019-01-08T09:09:43.736Z,7.3
2019-01-08T09:10:45.101Z,7.4
2019-01-08T09:11:46.473Z,7.3
2019-01-08T09:12:47.845Z,7.3
2019-01-08T09:13:49.208Z,7.3
2019-01-08T09:14:50.578Z,7.3
2019-01-08T09:15:51.952Z,7.4
2019-01-08T09:16:53.321Z,7.3
2019-01-08T09:17:54.676Z,7.3
2019-01-08T09:18:56.044Z,7.3
2019-01-08T09:19:57.413Z,7.4
2019-01-08T09:20:58.780Z,7.4
2019-01-08T09:22:00.145Z,7.3
2019-01-08T09:23:01.516Z,7.3
2019-01-08T09:24:02.883Z,7.3
2019-01-08T09:25:04.249Z,7.3
2019-01-08T09:26:05.625Z,7.3
2019-01-08T09:27:06.996Z,7.2
2019-01-08T09:28:08.361Z,7.3
2019-01-08T09:29:09.731Z,7.2
2019-01-08T09:30:11.098Z,7.3
2019-01-08T09:31:15.550Z,7.3
2019-01-08T09:32:13.796Z,7.3
2019-01-08T09:33:15.175Z,7.2
2019-01-08T09:34:16.595Z,7.1
2019-01-08T09:35:17.968Z,7.2
2019-01-08T09:36:19.334Z,7.1
2019-01-08T09:37:20.701Z,7.1
2019-01-08T09:38:22.071Z,7.2
2019-01-08T09:39:23.438Z,7.1
2019-01-08T09:40:24.805Z,7.1
2019-01-08T09:41:26.176Z,7.1
2019-01-08T09:42:27.544Z,7.1
2019-01-08T09:43:28.914Z,7.1
2019-01-08T09:44:30.279Z,7.0
2019-01-08T09:45:31.645Z,6.9
2019-01-08T09:46:33.017Z,6.9
2019-01-08T09:47:34.383Z,6.9
2019-01-08T09:48:35.759Z,6.9
2019-01-08T09:49:37.127Z,7.0
2019-01-08T09:50:38.498Z,6.9
2019-01-08T09:51:39.862Z,6.9
2019-01-08T09:52:41.232Z,6.9
2019-01-08T09:53:42.596Z,6.9
2019-01-08T09:54:43.962Z,6.9
2019-01-08T09:55:45.333Z,6.9
2019-01-08T09:56:46.704Z,6.9
2019-01-08T09:57:48.070Z,7.0
2019-01-08T09:58:49.431Z,6.9
2019-01-08T09:59:50.850Z,6.9
2019-01-08T10:00:52.182Z,6.9
2019-01-08T10:01:53.553Z,6.9
2019-01-08T10:02:54.883Z,6.9
2019-01-08T10:03:56.265Z,7.0
2019-01-08T10:04:57.647Z,7.0
2019-01-08T10:05:59.063Z,7.0
2019-01-08T10:07:00.474Z,7.0
2019-01-08T10:08:01.872Z,7.0
2019-01-08T10:09:03.301Z,7.0
2019-01-08T10:10:04.802Z,6.9
2019-01-08T10:11:07.376Z,6.9
2019-01-08T10:12:07.597Z,6.9
2019-01-08T10:13:09.016Z,6.9
2019-01-08T10:14:10.424Z,6.9
2019-01-08T10:15:11.813Z,7.0
2019-01-08T10:16:13.271Z,6.9
2019-01-08T10:17:14.678Z,7.0
2019-01-08T10:18:16.053Z,7.1
2019-01-08T10:19:17.498Z,7.1
2019-01-08T10:20:18.904Z,7.0
2019-01-08T10:21:20.285Z,7.2
2019-01-08T10:22:21.679Z,7.1
2019-01-08T10:23:23.105Z,7.1
2019-01-08T10:24:24.495Z,7.2
2019-01-08T10:25:25.979Z,7.2
2019-01-08T10:26:27.369Z,7.2
2019-01-08T10:27:28.776Z,7.2
2019-01-08T10:28:30.228Z,7.2
2019-01-08T10:29:31.622Z,7.3
2019-01-08T10:30:33.045Z,7.3
2019-01-08T10:31:34.471Z,7.3
2019-01-08T10:32:35.867Z,7.3
2019-01-08T10:33:37.256Z,7.3
2019-01-08T10:34:38.688Z,7.3
2019-01-08T10:35:40.071Z,7.3
2019-01-08T10:36:41.507Z,7.3
2019-01-08T10:37:42.925Z,7.3
2019-01-08T10:38:44.347Z,7.3
2019-01-08T10:39:45.776Z,7.2
2019-01-08T10:40:47.313Z,7.3
2019-01-08T10:41:48.671Z,7.3
2019-01-08T10:42:50.076Z,7.3
2019-01-08T10:43:51.464Z,7.3
2019-01-08T10:44:52.849Z,7.3
2019-01-08T10:45:54.253Z,7.3
2019-01-08T10:46:55.644Z,7.1
2019-01-08T10:47:57.045Z,7.2
2019-01-08T10:48:58.509Z,7.2
2019-01-08T10:49:59.891Z,7.2
2019-01-08T10:51:01.280Z,7.3
2019-01-08T10:52:02.674Z,7.2
2019-01-08T10:53:04.081Z,7.3
2019-01-08T10:54:05.500Z,7.3
2019-01-08T10:55:06.899Z,7.2
2019-01-08T10:56:08.299Z,7.3
2019-01-08T10:57:09.723Z,7.3
2019-01-08T10:58:11.119Z,7.3
2019-01-08T10:59:12.541Z,7.2
2019-01-08T11:00:13.975Z,7.3
2019-01-08T11:01:15.404Z,7.3
2019-01-08T11:02:16.809Z,7.3
2019-01-08T11:03:18.227Z,7.3
2019-01-08T11:04:19.655Z,7.2
2019-01-08T11:05:21.040Z,7.2
2019-01-08T11:06:22.475Z,7.3
2019-01-08T11:07:23.870Z,7.3
2019-01-08T11:08:25.277Z,7.3
2019-01-08T11:09:26.669Z,7.3
2019-01-08T11:10:28.082Z,7.4
2019-01-08T11:11:29.519Z,7.4
2019-01-08T11:12:30.931Z,7.3
2019-01-08T11:13:32.337Z,7.4
2019-01-08T11:14:33.749Z,7.4
2019-01-08T11:15:35.164Z,7.4
2019-01-08T11:16:36.592Z,7.3
2019-01-08T11:17:37.998Z,7.4
2019-01-08T11:18:39.456Z,7.4
2019-01-08T11:19:40.874Z,7.3
2019-01-08T11:20:42.301Z,7.3
2019-01-08T11:21:43.707Z,7.3
2019-01-08T11:22:45.111Z,7.3
2019-01-08T11:23:46.520Z,7.3
2019-01-08T11:24:47.966Z,7.3
2019-01-08T11:25:49.350Z,7.3
2019-01-08T11:26:50.753Z,7.4
2019-01-08T11:27:52.145Z,7.3
2019-01-08T11:28:53.638Z,7.4
2019-01-08T11:29:55.042Z,7.4
2019-01-08T11:30:56.428Z,7.5
2019-01-08T11:31:57.820Z,7.5
2019-01-08T11:32:59.206Z,7.6
2019-01-08T11:34:00.612Z,7.6
2019-01-08T11:35:02.003Z,7.5
2019-01-08T11:36:03.384Z,7.6
2019-01-08T11:37:04.832Z,7.6
2019-01-08T11:38:06.244Z,7.6
2019-01-08T11:39:07.667Z,7.7
2019-01-08T11:40:09.086Z,7.7
2019-01-08T11:41:10.468Z,7.7
2019-01-08T11:42:11.868Z,7.7
2019-01-08T11:43:13.252Z,7.8
2019-01-08T11:44:14.661Z,7.7
2019-01-08T11:45:16.083Z,7.8
2019-01-08T11:46:17.466Z,7.7
2019-01-08T11:47:18.910Z,7.7
2019-01-08T11:48:20.393Z,7.7
2019-01-08T11:49:21.826Z,7.6
2019-01-08T11:50:23.282Z,7.6
2019-01-08T11:51:24.660Z,7.5
2019-01-08T11:52:26.084Z,7.6
2019-01-08T11:53:27.491Z,7.4
2019-01-08T11:54:28.908Z,7.3
2019-01-08T11:55:30.299Z,7.4
2019-01-08T11:56:31.707Z,7.3
2019-01-08T11:57:33.111Z,7.3
2019-01-08T11:58:34.529Z,7.4
2019-01-08T11:59:35.924Z,7.3
2019-01-08T12:00:37.320Z,7.4
2019-01-08T12:01:38.736Z,7.4
2019-01-08T12:02:47.606Z,7.5
2019-01-08T12:03:41.478Z,7.5
2019-01-08T12:04:42.859Z,7.6
2019-01-08T12:05:44.257Z,7.7
2019-01-08T12:06:45.645Z,7.7
2019-01-08T12:07:47.055Z,7.7
2019-01-08T12:08:48.444Z,7.7
2019-01-08T12:09:49.830Z,7.8
2019-01-08T12:10:51.221Z,7.8
2019-01-08T12:11:52.617Z,7.8
2019-01-08T12:12:53.991Z,7.8
2019-01-08T12:13:55.370Z,7.9
2019-01-08T12:14:56.730Z,7.9
2019-01-08T12:15:58.097Z,8.0
2019-01-08T12:16:59.466Z,7.9
2019-01-08T12:18:00.837Z,8.0
2019-01-08T12:19:02.211Z,7.9
2019-01-08T12:20:03.582Z,7.9
2019-01-08T12:21:04.959Z,8.0
2019-01-08T12:22:06.325Z,8.0
2019-01-08T12:23:07.693Z,8.0
2019-01-08T12:24:09.060Z,8.4
2019-01-08T12:25:10.433Z,8.6
2019-01-08T12:26:11.804Z,8.5
2019-01-08T12:27:13.174Z,8.5
2019-01-08T12:28:14.553Z,8.4
2019-01-08T12:29:15.913Z,8.4
2019-01-08T12:30:17.278Z,8.3
2019-01-08T12:31:18.651Z,8.2
2019-01-08T12:32:20.027Z,8.2
2019-01-08T12:33:21.395Z,8.2
2019-01-08T12:34:22.766Z,8.2
2019-01-08T12:35:24.136Z,8.1
2019-01-08T12:36:25.500Z,8.2
2019-01-08T12:37:26.871Z,8.1
2019-01-08T12:38:28.246Z,8.1
2019-01-08T12:39:29.617Z,8.2
2019-01-08T12:40:30.988Z,8.2
2019-01-08T12:41:32.358Z,8.2
2019-01-08T12:42:33.726Z,8.2
2019-01-08T12:43:35.093Z,8.2
2019-01-08T12:44:36.475Z,8.2
2019-01-08T12:45:37.833Z,8.1
2019-01-08T12:46:39.198Z,8.1
2019-01-08T12:47:40.570Z,8.1
2019-01-08T12:48:41.935Z,8.1
2019-01-08T12:49:43.309Z,8.0
2019-01-08T12:50:44.676Z,8.0
2019-01-08T12:51:46.052Z,7.8
2019-01-08T12:52:47.419Z,7.9
2019-01-08T12:53:48.779Z,7.8
2019-01-08T12:54:50.156Z,7.7
2019-01-08T12:55:51.527Z,7.6
2019-01-08T12:56:52.895Z,7.6
2019-01-08T12:57:54.261Z,7.5
2019-01-08T12:58:55.633Z,7.5
2019-01-08T12:59:57.008Z,7.5
2019-01-08T13:00:58.376Z,7.4
2019-01-08T13:01:59.747Z,7.4
2019-01-08T13:03:01.115Z,7.3
2019-01-08T13:04:02.478Z,7.4
2019-01-08T13:05:03.845Z,7.3
2019-01-08T13:06:05.219Z,7.3
2019-01-08T13:07:06.584Z,7.2
2019-01-08T13:08:07.953Z,7.1
2019-01-08T13:09:09.326Z,7.1
2019-01-08T13:10:10.695Z,7.1
2019-01-08T13:11:12.064Z,7.1
2019-01-08T13:12:13.433Z,7.1
2019-01-08T13:13:14.805Z,7.0
2019-01-08T13:14:16.172Z,7.0
2019-01-08T13:15:17.539Z,7.2
2019-01-08T13:16:18.910Z,7.2
2019-01-08T13:17:20.282Z,7.5
2019-01-08T13:18:21.649Z,7.8
2019-01-08T13:19:23.022Z,7.8
2019-01-08T13:20:24.390Z,7.9
2019-01-08T13:21:25.758Z,7.8
2019-01-08T13:22:27.128Z,7.9
2019-01-08T13:23:28.497Z,7.8
2019-01-08T13:24:29.865Z,7.8
2019-01-08T13:25:31.238Z,7.9
2019-01-08T13:26:32.605Z,8.3
2019-01-08T13:27:33.973Z,8.2
2019-01-08T13:28:35.346Z,8.0
2019-01-08T13:29:36.719Z,8.1
2019-01-08T13:30:38.084Z,8.0
2019-01-08T13:31:39.455Z,8.0
2019-01-08T13:32:40.830Z,8.0
2019-01-08T13:33:42.225Z,7.9
2019-01-08T13:34:43.564Z,7.9
2019-01-08T13:35:44.935Z,7.9
2019-01-08T13:36:46.302Z,7.8
2019-01-08T13:37:47.673Z,7.8
2019-01-08T13:38:49.045Z,7.8
2019-01-08T13:39:50.416Z,7.7
2019-01-08T13:40:51.786Z,7.7
2019-01-08T13:41:53.158Z,7.8
2019-01-08T13:42:54.518Z,7.8
2019-01-08T13:43:55.894Z,7.8
2019-01-08T13:44:57.261Z,7.8
2019-01-08T13:45:58.636Z,7.8
2019-01-08T13:47:00.013Z,7.8
2019-01-08T13:48:01.382Z,7.8
2019-01-08T13:49:02.753Z,7.8
2019-01-08T13:50:04.124Z,7.8
2019-01-08T13:51:05.497Z,7.9
2019-01-08T13:52:06.865Z,7.9
2019-01-08T13:53:08.233Z,8.1
2019-01-08T13:54:09.618Z,8.5
2019-01-08T13:55:10.983Z,8.7
2019-01-08T13:56:12.367Z,8.9
2019-01-08T13:57:13.819Z,8.9
2019-01-08T13:58:15.184Z,9.1
2019-01-08T13:59:16.599Z,9.2
2019-01-08T14:00:17.972Z,9.4
2019-01-08T14:01:19.342Z,9.4
2019-01-08T14:02:20.709Z,9.4
2019-01-08T14:03:22.082Z,9.2
2019-01-08T14:04:23.452Z,8.9
2019-01-08T14:05:24.819Z,8.8